Time;durP1;ratioP1;P1;durP2;ratioP2;P2;SDS_P1;SDS_P2;PMS_P1;PMS_P2;Temp;Humidity;BMP_temperature;BMP_pressure;BME280_temperature;BME280_humidity;BME280_pressure;Samples;Min_cycle;Max_cycle;Signal;HPM_P1;HPM_P2
2021/09/16 00:01:41;;;;;;;6.85;4.00;;;16.00;99.90;;;;;;5074831;28;20028;-70
2021/09/16 00:04:07;;;;;;;9.52;4.22;;;15.90;99.90;;;;;;5074151;28;20041;-70
2021/09/16 00:06:32;;;;;;;10.60;3.75;;;15.90;99.90;;;;;;5074462;28;20028;-70
2021/09/16 00:08:58;;;;;;;10.73;4.40;;;15.90;99.90;;;;;;5072979;28;20029;-69
2021/09/16 00:11:23;;;;;;;9.25;3.20;;;15.90;99.90;;;;;;5074650;28;20029;-70
2021/09/16 00:13:49;;;;;;;8.82;3.10;;;15.90;99.90;;;;;;5074329;28;20103;-69
2021/09/16 00:16:16;;;;;;;5.47;1.95;;;15.80;99.90;;;;;;5056141;28;20032;-70
2021/09/16 00:18:41;;;;;;;4.10;2.22;;;15.80;99.90;;;;;;5074258;28;20031;-69
2021/09/16 00:21:07;;;;;;;7.40;2.10;;;15.80;99.90;;;;;;5073977;28;20024;-69
2021/09/16 00:23:33;;;;;;;4.25;1.77;;;15.70;99.90;;;;;;5074408;28;20340;-69
2021/09/16 00:25:58;;;;;;;8.10;1.83;;;15.70;99.90;;;;;;5073292;28;20021;-69
2021/09/16 00:28:24;;;;;;;6.20;1.75;;;15.70;99.90;;;;;;5073287;28;20473;-69
2021/09/16 00:30:49;;;;;;;4.15;1.55;;;15.70;99.90;;;;;;5074390;28;20123;-69
2021/09/16 00:33:15;;;;;;;2.20;1.40;;;15.60;99.90;;;;;;5073769;28;20103;-69
2021/09/16 00:35:41;;;;;;;10.00;1.90;;;15.60;99.90;;;;;;5074281;28;20039;-70
2021/09/16 00:38:07;;;;;;;5.30;1.52;;;15.60;99.90;;;;;;5074296;28;20067;-70
2021/09/16 00:40:33;;;;;;;3.53;1.40;;;15.50;99.90;;;;;;5074230;28;20020;-69
2021/09/16 00:42:59;;;;;;;5.72;1.85;;;15.50;99.90;;;;;;5073847;28;20024;-69
2021/09/16 00:45:24;;;;;;;5.05;1.67;;;15.50;99.90;;;;;;5073965;28;20034;-70
2021/09/16 00:47:51;;;;;;;4.65;1.60;;;15.40;99.90;;;;;;5072997;28;20025;-69
2021/09/16 00:50:21;;;;;;;5.63;1.95;;;15.40;99.90;;;;;;5074194;28;20082;-70
2021/09/16 00:52:48;;;;;;;7.30;1.63;;;15.40;99.90;;;;;;5074106;28;20020;-69
2021/09/16 00:55:13;;;;;;;5.50;1.42;;;15.40;99.90;;;;;;5073811;28;20027;-70
2021/09/16 00:57:43;;;;;;;6.35;1.77;;;15.30;99.90;;;;;;5072620;28;20483;-69
2021/09/16 01:00:09;;;;;;;4.57;1.80;;;15.30;99.90;;;;;;5073859;28;20515;-70
2021/09/16 01:02:35;;;;;;;7.05;1.65;;;15.20;99.90;;;;;;5073828;28;20481;-70
2021/09/16 01:05:02;;;;;;;7.13;1.90;;;15.20;99.90;;;;;;5073883;28;20028;-69
2021/09/16 01:07:29;;;;;;;3.30;1.50;;;15.10;99.90;;;;;;5072537;28;20482;-70
2021/09/16 01:09:55;;;;;;;6.03;1.70;;;15.10;99.90;;;;;;5074020;28;20455;-70
2021/09/16 01:12:21;;;;;;;7.70;1.95;;;15.10;99.90;;;;;;5072187;28;20033;-70
2021/09/16 01:14:47;;;;;;;4.30;1.40;;;15.10;99.90;;;;;;5055916;28;20051;-70
2021/09/16 01:17:12;;;;;;;6.40;1.45;;;15.00;99.90;;;;;;5073898;28;20555;-70
2021/09/16 01:19:38;;;;;;;9.88;1.77;;;15.00;99.90;;;;;;5055405;28;20025;-69
2021/09/16 01:22:04;;;;;;;4.53;1.60;;;14.90;99.90;;;;;;5073848;28;20029;-69
2021/09/16 01:24:30;;;;;;;5.07;1.70;;;14.90;99.90;;;;;;5073736;28;20123;-69
2021/09/16 01:26:55;;;;;;;3.45;1.65;;;14.80;99.90;;;;;;5072809;28;20509;-70
2021/09/16 01:29:21;;;;;;;6.53;1.88;;;14.70;99.90;;;;;;5073774;28;20039;-69
2021/09/16 01:31:49;;;;;;;7.35;1.80;;;14.70;99.90;;;;;;5072261;28;20103;-69
2021/09/16 01:34:16;;;;;;;7.72;1.75;;;14.60;99.90;;;;;;5073709;28;20462;-70
2021/09/16 01:36:44;;;;;;;6.07;1.80;;;14.50;99.90;;;;;;5072744;28;20420;-70
2021/09/16 01:39:13;;;;;;;4.75;1.60;;;14.50;99.90;;;;;;5071953;28;20025;-69
2021/09/16 01:41:38;;;;;;;7.68;2.08;;;14.40;99.90;;;;;;5073942;28;20458;-70
2021/09/16 01:44:05;;;;;;;6.60;1.67;;;14.30;99.90;;;;;;5073781;28;20040;-70
2021/09/16 01:46:30;;;;;;;9.30;1.75;;;14.20;99.90;;;;;;5072458;28;20024;-70
2021/09/16 01:48:59;;;;;;;7.70;1.77;;;14.10;99.90;;;;;;5073295;28;20029;-70
2021/09/16 01:51:25;;;;;;;9.88;2.17;;;14.10;99.90;;;;;;5072694;28;20028;-70
2021/09/16 01:53:50;;;;;;;7.25;1.63;;;14.10;99.90;;;;;;5073558;28;20396;-70
2021/09/16 01:56:16;;;;;;;6.82;2.13;;;14.00;99.90;;;;;;5073215;28;20052;-70
2021/09/16 01:58:41;;;;;;;8.77;2.17;;;14.00;99.90;;;;;;5073296;28;20458;-70
2021/09/16 02:01:07;;;;;;;4.78;1.90;;;13.90;99.90;;;;;;5073474;28;20430;-70
2021/09/16 02:03:32;;;;;;;6.65;2.65;;;13.80;99.90;;;;;;5072965;28;20557;-70
2021/09/16 02:05:58;;;;;;;5.80;2.17;;;13.80;99.90;;;;;;5072870;28;20363;-70
2021/09/16 02:08:24;;;;;;;4.90;2.38;;;13.80;99.90;;;;;;5072441;28;20024;-70
2021/09/16 02:10:50;;;;;;;8.32;2.40;;;13.90;99.90;;;;;;5073397;28;20037;-70
2021/09/16 02:13:15;;;;;;;6.72;2.25;;;13.90;99.90;;;;;;5077010;28;20056;-70
2021/09/16 02:15:41;;;;;;;10.80;2.40;;;13.90;99.90;;;;;;5076672;28;20024;-70
2021/09/16 02:18:06;;;;;;;6.10;2.42;;;14.00;99.90;;;;;;5076900;28;20043;-70
2021/09/16 02:20:32;;;;;;;3.72;2.20;;;14.00;99.90;;;;;;5075910;28;20021;-70
2021/09/16 02:22:57;;;;;;;7.65;2.40;;;14.10;99.90;;;;;;5076803;28;20355;-69
2021/09/16 02:25:23;;;;;;;5.93;2.13;;;14.10;99.90;;;;;;5076369;28;20429;-69
2021/09/16 02:27:49;;;;;;;6.75;2.60;;;14.20;99.90;;;;;;5074945;28;20031;-70
2021/09/16 02:30:14;;;;;;;8.30;2.53;;;14.20;99.90;;;;;;5076713;28;20029;-70
2021/09/16 02:32:40;;;;;;;7.22;2.63;;;14.20;99.90;;;;;;5076394;28;20658;-69
2021/09/16 02:35:06;;;;;;;8.65;2.65;;;14.20;99.90;;;;;;5077024;28;20086;-70
2021/09/16 02:37:32;;;;;;;7.85;3.13;;;14.30;99.90;;;;;;5075970;28;20036;-70
2021/09/16 02:39:58;;;;;;;8.02;3.22;;;14.30;99.90;;;;;;5058535;28;20032;-70
2021/09/16 02:42:24;;;;;;;5.50;3.03;;;14.30;99.90;;;;;;5076199;28;20535;-69
2021/09/16 02:44:49;;;;;;;7.80;2.50;;;14.40;99.90;;;;;;5076459;28;20344;-70
2021/09/16 02:47:15;;;;;;;6.22;2.40;;;14.40;99.90;;;;;;5076349;28;20381;-69
2021/09/16 02:49:41;;;;;;;11.52;2.35;;;14.40;99.90;;;;;;5075299;28;20458;-69
2021/09/16 02:52:06;;;;;;;9.02;2.90;;;14.40;99.90;;;;;;5074746;28;20025;-70
2021/09/16 02:54:32;;;;;;;10.00;2.90;;;14.50;99.90;;;;;;5074425;28;20025;-70
2021/09/16 02:56:57;;;;;;;4.55;2.50;;;14.50;99.90;;;;;;5075875;28;20025;-70
2021/09/16 02:59:23;;;;;;;6.65;2.53;;;14.50;99.90;;;;;;5074361;28;20020;-69
2021/09/16 03:01:48;;;;;;;9.02;2.80;;;14.50;99.90;;;;;;5074562;28;20028;-69
2021/09/16 03:04:14;;;;;;;8.23;3.10;;;14.50;99.90;;;;;;5074164;28;20048;-70
2021/09/16 03:06:39;;;;;;;5.45;2.50;;;14.60;99.90;;;;;;5076073;28;20029;-69
2021/09/16 03:09:05;;;;;;;6.07;2.70;;;14.60;99.90;;;;;;5075704;28;20021;-69
2021/09/16 03:11:31;;;;;;;9.55;2.78;;;14.60;99.90;;;;;;5075896;28;20373;-69
2021/09/16 03:13:56;;;;;;;6.47;2.95;;;14.60;99.90;;;;;;5074416;28;20489;-69
2021/09/16 03:16:22;;;;;;;6.47;2.92;;;14.60;99.90;;;;;;5057458;28;20035;-70
2021/09/16 03:18:47;;;;;;;8.43;3.45;;;14.60;99.90;;;;;;5075777;28;20035;-70
2021/09/16 03:21:13;;;;;;;7.40;3.30;;;14.60;99.90;;;;;;5075761;28;20355;-70
2021/09/16 03:23:39;;;;;;;6.05;3.33;;;14.60;99.90;;;;;;5074412;28;20036;-70
2021/09/16 03:26:05;;;;;;;7.63;3.50;;;14.60;99.90;;;;;;5057176;28;20500;-69
2021/09/16 03:28:30;;;;;;;11.88;4.72;;;14.60;99.90;;;;;;5075557;28;20017;-69
2021/09/16 03:30:56;;;;;;;8.35;4.05;;;14.60;99.90;;;;;;5074958;28;20085;-70
2021/09/16 03:33:21;;;;;;;9.43;4.40;;;14.60;99.90;;;;;;5075452;28;20086;-69
2021/09/16 03:35:47;;;;;;;10.50;4.13;;;14.60;99.90;;;;;;5075038;28;20023;-70
2021/09/16 03:38:13;;;;;;;8.35;3.72;;;14.60;99.90;;;;;;5073760;28;20021;-69
2021/09/16 03:40:39;;;;;;;8.07;4.00;;;14.60;99.90;;;;;;5073988;28;20019;-69
2021/09/16 03:43:06;;;;;;;9.35;4.32;;;14.60;99.90;;;;;;5073977;28;20100;-69
2021/09/16 03:45:31;;;;;;;7.80;4.13;;;14.60;99.90;;;;;;5073937;28;20115;-69
2021/09/16 03:47:57;;;;;;;8.95;4.18;;;14.60;99.90;;;;;;5074872;28;20103;-70
2021/09/16 03:50:23;;;;;;;7.93;4.05;;;14.60;99.90;;;;;;5073584;28;20522;-70
2021/09/16 03:52:48;;;;;;;8.50;3.40;;;14.60;99.90;;;;;;5075098;28;20027;-69
2021/09/16 03:55:14;;;;;;;8.88;4.15;;;14.70;99.90;;;;;;5075000;28;20146;-69
2021/09/16 03:57:40;;;;;;;8.07;3.88;;;14.60;99.90;;;;;;5073989;28;20358;-70
2021/09/16 04:00:07;;;;;;;6.85;4.22;;;14.70;99.90;;;;;;5073756;28;20107;-69
2021/09/16 04:02:33;;;;;;;7.07;3.83;;;14.60;99.90;;;;;;5074699;28;20021;-70
2021/09/16 04:04:59;;;;;;;10.15;4.00;;;14.70;99.90;;;;;;5074730;28;20035;-69
2021/09/16 04:07:24;;;;;;;10.00;3.65;;;14.70;99.90;;;;;;5074538;28;20025;-69
2021/09/16 04:09:50;;;;;;;9.10;3.60;;;14.70;99.90;;;;;;5074730;28;20362;-69
2021/09/16 04:12:15;;;;;;;4.40;3.20;;;14.60;99.90;;;;;;5074509;28;20025;-69
2021/09/16 04:14:41;;;;;;;7.57;2.95;;;14.50;99.90;;;;;;5074626;28;20474;-70
2021/09/16 04:17:06;;;;;;;8.23;3.63;;;14.50;99.90;;;;;;5074370;28;20355;-69
2021/09/16 04:19:32;;;;;;;7.57;3.22;;;14.40;99.90;;;;;;5073164;28;20106;-69
2021/09/16 04:21:57;;;;;;;9.00;3.20;;;14.40;99.90;;;;;;5072728;28;20024;-69
2021/09/16 04:24:23;;;;;;;8.23;3.50;;;14.30;99.90;;;;;;5072684;28;20029;-70
2021/09/16 04:26:48;;;;;;;12.13;3.63;;;14.20;99.90;;;;;;5074184;28;20031;-69
2021/09/16 04:29:14;;;;;;;7.85;2.95;;;14.20;99.90;;;;;;5074412;28;20016;-70
2021/09/16 04:31:40;;;;;;;8.15;3.47;;;14.10;99.90;;;;;;5073836;28;20020;-69
2021/09/16 04:34:06;;;;;;;10.23;3.45;;;14.10;99.90;;;;;;5073364;28;20029;-69
2021/09/16 04:36:31;;;;;;;10.15;3.03;;;14.10;99.90;;;;;;5074015;28;20040;-70
2021/09/16 04:38:57;;;;;;;12.60;3.50;;;14.10;99.90;;;;;;5074234;28;20024;-69
2021/09/16 04:41:23;;;;;;;7.82;3.55;;;14.10;99.90;;;;;;5074239;28;20103;-69
2021/09/16 04:43:49;;;;;;;9.73;3.22;;;14.10;99.90;;;;;;5073592;28;20032;-69
2021/09/16 04:46:14;;;;;;;9.82;3.28;;;14.10;99.90;;;;;;5072996;28;20362;-69
2021/09/16 04:48:40;;;;;;;9.77;3.63;;;14.20;99.90;;;;;;5073866;28;20355;-70
2021/09/16 04:51:05;;;;;;;8.85;4.00;;;14.10;99.90;;;;;;5074081;28;20125;-69
2021/09/16 04:53:31;;;;;;;11.30;3.85;;;14.10;99.90;;;;;;5073529;28;20029;-69
2021/09/16 04:55:57;;;;;;;10.25;4.03;;;14.10;99.90;;;;;;5073811;28;20025;-69
2021/09/16 04:58:22;;;;;;;8.40;3.78;;;14.10;99.90;;;;;;5073753;28;20024;-69
2021/09/16 05:00:48;;;;;;;10.05;3.60;;;14.10;99.90;;;;;;5074021;28;20028;-69
2021/09/16 05:03:15;;;;;;;10.38;4.78;;;14.10;99.90;;;;;;5073212;28;20044;-69
2021/09/16 05:05:41;;;;;;;11.25;4.70;;;14.20;99.90;;;;;;5073461;28;20492;-69
2021/09/16 05:08:07;;;;;;;12.10;4.75;;;14.20;99.90;;;;;;5073964;28;20028;-69
2021/09/16 05:10:32;;;;;;;13.95;5.15;;;14.20;99.90;;;;;;5072922;28;20024;-69
2021/09/16 05:12:58;;;;;;;9.70;4.78;;;14.20;99.90;;;;;;5072502;28;20025;-69
2021/09/16 05:15:23;;;;;;;11.68;5.07;;;14.20;99.90;;;;;;5073858;28;20028;-69
2021/09/16 05:17:49;;;;;;;8.88;5.15;;;14.20;99.90;;;;;;5073839;28;20029;-69
2021/09/16 05:20:15;;;;;;;9.50;5.28;;;14.20;99.90;;;;;;5073527;28;20051;-69
2021/09/16 05:22:40;;;;;;;12.80;6.05;;;14.20;99.90;;;;;;5073868;28;20068;-69
2021/09/16 05:25:06;;;;;;;8.70;5.32;;;14.20;99.90;;;;;;5073742;28;20021;-69
2021/09/16 05:27:32;;;;;;;14.25;6.53;;;14.20;99.90;;;;;;5073507;28;20432;-69
2021/09/16 05:29:57;;;;;;;10.93;5.15;;;14.20;99.90;;;;;;5073730;28;20017;-70
2021/09/16 05:32:27;;;;;;;13.77;5.70;;;14.20;99.90;;;;;;5073184;28;20024;-69
2021/09/16 05:34:53;;;;;;;11.93;5.65;;;14.20;99.90;;;;;;5073434;28;20016;-69
2021/09/16 05:37:19;;;;;;;14.52;5.47;;;14.30;99.90;;;;;;5073168;28;20020;-69
2021/09/16 05:39:44;;;;;;;18.35;6.60;;;14.20;99.90;;;;;;5072359;28;20086;-69
2021/09/16 05:42:10;;;;;;;11.60;5.85;;;14.30;99.90;;;;;;5072432;28;20579;-69
2021/09/16 05:44:36;;;;;;;12.80;6.47;;;14.30;99.90;;;;;;5073240;28;20027;-69
2021/09/16 05:47:01;;;;;;;15.13;6.72;;;14.30;99.90;;;;;;5074940;28;20020;-69
2021/09/16 05:49:27;;;;;;;20.10;6.90;;;14.40;99.90;;;;;;5075600;28;20078;-69
2021/09/16 05:51:52;;;;;;;15.68;6.07;;;14.30;99.90;;;;;;5076006;28;20115;-70
2021/09/16 05:54:18;;;;;;;12.65;5.63;;;14.30;99.90;;;;;;5059333;28;20028;-70
2021/09/16 05:56:43;;;;;;;16.88;6.55;;;14.30;99.90;;;;;;5076882;28;20029;-67
2021/09/16 05:59:09;;;;;;;17.83;7.10;;;14.30;99.90;;;;;;5075330;28;20389;-69
2021/09/16 06:01:34;;;;;;;12.98;6.38;;;14.30;99.90;;;;;;5076013;28;20031;-69
2021/09/16 06:04:00;;;;;;;15.80;6.72;;;14.30;99.90;;;;;;5076563;28;20510;-69
2021/09/16 06:06:25;;;;;;;16.27;6.85;;;14.40;99.90;;;;;;5075617;28;20046;-69
2021/09/16 06:08:51;;;;;;;11.80;6.57;;;14.40;99.90;;;;;;5075496;28;20029;-69
2021/09/16 06:11:16;;;;;;;15.25;6.65;;;14.50;99.90;;;;;;5075091;28;20025;-69
2021/09/16 06:13:42;;;;;;;14.88;7.22;;;14.40;99.90;;;;;;5075102;28;20046;-69
2021/09/16 06:16:07;;;;;;;17.60;7.47;;;14.50;99.90;;;;;;5076902;28;20036;-70
2021/09/16 06:18:33;;;;;;;10.27;6.32;;;14.50;99.90;;;;;;5076462;28;20074;-70
2021/09/16 06:20:58;;;;;;;16.35;6.72;;;14.50;99.90;;;;;;5076220;28;20107;-69
2021/09/16 06:23:24;;;;;;;16.15;6.88;;;14.60;99.90;;;;;;5076644;28;20077;-69
2021/09/16 06:25:49;;;;;;;15.98;7.13;;;14.60;99.90;;;;;;5076724;28;20092;-70
2021/09/16 06:28:15;;;;;;;14.63;6.90;;;14.60;99.90;;;;;;5076071;28;20029;-70
2021/09/16 06:30:41;;;;;;;13.15;6.90;;;14.60;99.90;;;;;;5074715;28;20025;-70
2021/09/16 06:33:07;;;;;;;16.77;7.55;;;14.60;99.90;;;;;;5076212;28;20382;-70
2021/09/16 06:35:32;;;;;;;16.58;7.43;;;14.60;99.90;;;;;;5076518;28;20020;-70
2021/09/16 06:37:58;;;;;;;21.08;7.63;;;14.50;99.90;;;;;;5076466;28;20492;-69
2021/09/16 06:40:23;;;;;;;22.50;7.60;;;14.60;99.90;;;;;;5076118;28;20024;-69
2021/09/16 06:42:49;;;;;;;13.38;7.45;;;14.50;99.90;;;;;;5066536;28;20028;-70
2021/09/16 06:45:15;;;;;;;15.88;7.35;;;14.60;99.90;;;;;;5075244;28;20094;-70
2021/09/16 06:47:41;;;;;;;15.65;7.03;;;14.60;99.90;;;;;;5074594;28;20374;-70
2021/09/16 06:50:07;;;;;;;14.13;7.80;;;14.60;99.90;;;;;;5073247;28;20513;-70
2021/09/16 06:52:33;;;;;;;15.55;7.68;;;14.70;99.90;;;;;;5078454;28;20385;-70
2021/09/16 06:54:58;;;;;;;15.00;7.45;;;14.70;99.90;;;;;;5074912;28;20096;-70
2021/09/16 06:57:25;;;;;;;16.65;8.20;;;14.80;99.90;;;;;;5053273;28;20029;-70
2021/09/16 06:59:50;;;;;;;15.18;7.38;;;14.80;99.90;;;;;;5055074;28;20021;-70
2021/09/16 07:02:16;;;;;;;22.20;7.82;;;14.80;99.90;;;;;;5073755;28;20082;-70
2021/09/16 07:04:42;;;;;;;14.60;7.75;;;14.90;99.90;;;;;;5074268;28;20045;-70
2021/09/16 07:07:08;;;;;;;17.15;8.45;;;14.90;99.90;;;;;;5062241;28;20520;-70
2021/09/16 07:09:35;;;;;;;22.00;8.63;;;14.90;99.90;;;;;;5073580;28;20019;-70
2021/09/16 07:12:01;;;;;;;18.40;8.48;;;14.90;99.90;;;;;;5074210;28;20089;-70
2021/09/16 07:14:29;;;;;;;12.50;8.10;;;14.90;99.90;;;;;;5073184;28;20032;-70
2021/09/16 07:16:56;;;;;;;21.02;9.85;;;14.90;99.90;;;;;;5070376;28;20071;-70
2021/09/16 07:19:21;;;;;;;20.05;10.25;;;14.90;99.90;;;;;;5052183;28;20410;-70
2021/09/16 07:21:47;;;;;;;17.63;10.70;;;14.90;99.90;;;;;;5055398;28;20028;-70
2021/09/16 07:24:14;;;;;;;16.98;10.10;;;14.90;99.90;;;;;;5073652;28;20025;-70
2021/09/16 07:26:40;;;;;;;18.48;10.02;;;14.90;99.90;;;;;;5073415;28;20059;-70
2021/09/16 07:29:06;;;;;;;17.75;10.60;;;14.90;99.90;;;;;;5071477;28;20076;-70
2021/09/16 07:31:31;;;;;;;18.88;11.10;;;14.90;99.90;;;;;;5071978;28;20021;-70
2021/09/16 07:33:57;;;;;;;20.15;10.80;;;14.90;99.90;;;;;;5073613;28;20028;-70
2021/09/16 07:36:23;;;;;;;16.95;10.70;;;14.90;99.90;;;;;;5071972;28;20039;-70
2021/09/16 07:38:49;;;;;;;18.00;11.65;;;14.90;99.90;;;;;;5072542;28;20084;-70
2021/09/16 07:41:15;;;;;;;22.00;12.40;;;15.00;99.90;;;;;;5073993;28;20020;-70
2021/09/16 07:43:41;;;;;;;21.63;12.15;;;15.00;99.90;;;;;;5072361;28;20446;-70
2021/09/16 07:46:07;;;;;;;21.00;13.20;;;15.00;99.90;;;;;;5072963;28;20066;-70
2021/09/16 07:48:32;;;;;;;20.25;12.35;;;15.00;99.90;;;;;;5056432;28;20023;-70
2021/09/16 07:50:58;;;;;;;23.75;12.63;;;15.00;99.90;;;;;;5073222;28;20442;-70
2021/09/16 07:53:24;;;;;;;23.73;14.25;;;15.00;99.90;;;;;;5073192;28;20024;-70
2021/09/16 07:55:49;;;;;;;19.08;13.63;;;15.00;99.90;;;;;;5092871;28;20024;-70
2021/09/16 07:58:15;;;;;;;21.23;12.85;;;15.00;99.90;;;;;;5083379;28;20033;-70
2021/09/16 08:00:40;;;;;;;15.32;13.18;;;15.00;99.90;;;;;;5073573;28;20050;-70
2021/09/16 08:03:06;;;;;;;21.83;13.93;;;15.10;99.90;;;;;;5073519;28;20370;-70
2021/09/16 08:05:31;;;;;;;20.45;14.45;;;15.10;99.90;;;;;;5073825;28;20461;-70
2021/09/16 08:07:57;;;;;;;21.92;14.30;;;15.00;99.90;;;;;;5072104;28;20029;-70
2021/09/16 08:10:23;;;;;;;20.55;15.63;;;15.00;99.90;;;;;;5072977;28;20032;-70
2021/09/16 08:12:49;;;;;;;26.05;15.45;;;15.00;99.90;;;;;;5072594;28;20035;-70
2021/09/16 08:15:15;;;;;;;25.42;16.13;;;15.00;99.90;;;;;;5073747;28;20028;-70
2021/09/16 08:17:40;;;;;;;24.02;16.88;;;15.00;99.90;;;;;;5073621;28;20094;-70
2021/09/16 08:20:07;;;;;;;27.95;15.98;;;15.00;99.90;;;;;;5073349;28;20036;-70
2021/09/16 08:22:34;;;;;;;24.38;16.20;;;14.90;99.90;;;;;;5073926;28;20559;-70
2021/09/16 08:25:00;;;;;;;25.52;17.05;;;14.90;99.90;;;;;;5072160;28;20036;-70
2021/09/16 08:27:26;;;;;;;23.83;16.60;;;14.90;99.90;;;;;;5071791;28;20074;-70
2021/09/16 08:29:51;;;;;;;22.65;15.73;;;15.00;99.90;;;;;;5072257;28;20024;-70
2021/09/16 08:32:18;;;;;;;20.58;16.17;;;15.00;99.90;;;;;;5072310;28;20024;-70
2021/09/16 08:34:43;;;;;;;22.77;15.68;;;15.10;99.90;;;;;;5072829;28;20442;-70
2021/09/16 08:37:11;;;;;;;23.83;15.70;;;15.10;99.90;;;;;;5072804;28;20147;-70
2021/09/16 08:39:36;;;;;;;21.92;14.82;;;15.10;99.90;;;;;;5072358;28;20052;-70
2021/09/16 08:42:02;;;;;;;20.60;13.88;;;15.20;99.90;;;;;;5073086;28;20048;-70
2021/09/16 08:44:28;;;;;;;23.58;14.65;;;15.20;99.90;;;;;;5072158;28;20028;-70
2021/09/16 08:46:53;;;;;;;20.15;14.23;;;15.20;99.90;;;;;;5072071;28;20047;-70
2021/09/16 08:49:19;;;;;;;21.40;15.13;;;15.20;99.90;;;;;;5076566;28;20023;-70
2021/09/16 08:51:44;;;;;;;19.50;15.30;;;15.20;99.90;;;;;;5073026;28;20110;-70
2021/09/16 08:54:11;;;;;;;21.13;14.98;;;15.30;99.90;;;;;;5070839;28;20032;-70
2021/09/16 08:56:39;;;;;;;17.92;13.80;;;15.40;99.90;;;;;;5071814;28;20738;-71
2021/09/16 08:59:06;;;;;;;19.90;13.80;;;15.40;99.90;;;;;;5071752;28;20028;-70
2021/09/16 09:01:33;;;;;;;22.48;14.18;;;15.50;99.90;;;;;;5071770;28;20031;-70
2021/09/16 09:03:58;;;;;;;22.70;14.43;;;15.60;99.90;;;;;;5071537;28;20375;-70
2021/09/16 09:06:27;;;;;;;19.08;13.35;;;15.60;99.90;;;;;;5071300;28;20027;-67
2021/09/16 09:11:53;;;;;;;20.77;13.07;;;15.70;99.90;;;;;;5109066;27;20475;-69
2021/09/16 09:14:22;;;;;;;20.17;14.02;;;15.80;99.90;;;;;;5100115;28;20024;-69
2021/09/16 09:16:48;;;;;;;25.48;13.25;;;15.60;99.90;;;;;;5102186;28;20143;-69
2021/09/16 09:19:16;;;;;;;24.83;12.98;;;15.70;99.90;;;;;;5090196;28;20028;-69
2021/09/16 09:21:42;;;;;;;16.75;12.70;;;15.60;99.90;;;;;;5090973;28;20078;-69
2021/09/16 09:24:08;;;;;;;26.15;12.90;;;15.70;99.90;;;;;;5090312;28;20036;-69
2021/09/16 09:26:38;;;;;;;21.70;12.77;;;15.70;99.90;;;;;;5089106;28;20103;-69
2021/09/16 09:32:01;;;;;;;21.65;12.38;;;15.80;99.90;;;;;;5110107;27;20916;-69
2021/09/16 09:34:33;;;;;;;20.30;13.27;;;15.90;99.90;;;;;;5101467;28;20416;-69
2021/09/16 09:37:17;;;;;;;17.65;11.27;;;16.00;99.90;;;;;;5091077;28;20346;-69
2021/09/16 09:39:47;;;;;;;14.65;11.77;;;16.30;99.90;;;;;;5096764;28;20020;-69
2021/09/16 09:42:21;;;;;;;21.42;11.68;;;16.40;99.90;;;;;;5097929;28;20060;-69
2021/09/16 09:44:48;;;;;;;15.65;11.07;;;16.70;99.90;;;;;;5091858;28;20028;-69
2021/09/16 09:47:14;;;;;;;20.27;11.05;;;16.70;99.90;;;;;;5089820;28;20081;-69
2021/09/16 09:49:39;;;;;;;16.77;10.88;;;16.80;99.90;;;;;;5089869;28;20056;-69
2021/09/16 09:52:06;;;;;;;15.50;10.00;;;16.80;99.90;;;;;;5087720;28;20079;-69
2021/09/16 09:54:38;;;;;;;12.32;9.25;;;16.80;99.90;;;;;;5071474;28;20032;-69
2021/09/16 09:57:11;;;;;;;14.60;9.60;;;16.80;99.90;;;;;;5090136;28;20031;-69
2021/09/16 09:59:58;;;;;;;15.93;9.27;;;16.70;99.90;;;;;;5089394;28;20104;-69
2021/09/16 10:02:50;;;;;;;15.52;8.98;;;16.70;99.90;;;;;;5089083;28;20016;-69
2021/09/16 10:05:21;;;;;;;18.58;8.80;;;16.80;99.90;;;;;;5100858;28;20028;-68
2021/09/16 10:07:48;;;;;;;16.65;7.97;;;17.00;99.90;;;;;;5064591;28;20017;-68
2021/09/16 10:10:18;;;;;;;11.80;8.15;;;17.10;99.90;;;;;;5087962;28;20561;-68
2021/09/16 10:12:52;;;;;;;14.48;7.22;;;17.20;99.90;;;;;;5086988;28;20052;-69
2021/09/16 10:15:21;;;;;;;17.13;7.65;;;17.40;99.90;;;;;;5089699;28;20103;-68
2021/09/16 10:17:53;;;;;;;14.88;6.60;;;17.40;99.90;;;;;;5092153;28;20012;-68
2021/09/16 10:20:22;;;;;;;10.55;6.10;;;17.50;99.90;;;;;;5090631;28;20511;-69
2021/09/16 10:22:52;;;;;;;9.10;5.30;;;17.80;99.90;;;;;;5090769;28;20541;-68
2021/09/16 10:25:23;;;;;;;9.68;5.85;;;18.10;99.90;;;;;;5095555;28;20020;-69
2021/09/16 10:28:04;;;;;;;13.20;5.88;;;18.40;99.90;;;;;;5075374;28;20509;-67
2021/09/16 10:31:13;;;;;;;10.00;5.82;;;18.20;99.90;;;;;;5102338;28;20059;-66
2021/09/16 10:36:07;;;;;;;10.93;5.22;;;17.70;99.90;;;;;;5090202;27;20447;-67
2021/09/16 10:38:47;;;;;;;12.18;5.30;;;17.80;99.90;;;;;;5089023;28;20385;-67
2021/09/16 10:41:31;;;;;;;12.05;5.07;;;17.80;99.90;;;;;;5073385;28;20512;-67
2021/09/16 10:44:00;;;;;;;;;;;17.70;99.90;;;;;;5074016;28;20043;-69
2021/09/16 10:46:43;;;;;;;11.68;5.82;;;17.40;99.90;;;;;;5089449;28;19916;-69
2021/09/16 10:54:52;;;;;;;19.30;5.97;;;17.50;99.90;;;;;;5069118;28;20395;-67
2021/09/16 10:57:37;;;;;;;6.28;4.03;;;18.80;99.90;;;;;;5038705;28;20024;-70
2021/09/16 11:00:06;;;;;;;9.38;4.57;;;18.70;99.90;;;;;;5057444;28;20383;-71
2021/09/16 11:05:22;;;;;;;8.93;4.85;;;18.40;99.90;;;;;;5050333;28;20201;-69
2021/09/16 11:13:31;;;;;;;12.50;5.88;;;18.30;99.90;;;;;;5131287;27;20390;-71
2021/09/16 11:15:58;;;;;;;14.50;5.90;;;17.80;99.90;;;;;;5129105;28;20390;-68
2021/09/16 11:18:25;;;;;;;11.23;5.70;;;17.70;99.90;;;;;;5110796;28;20480;-69
2021/09/16 11:21:02;;;;;;;10.63;5.82;;;17.70;99.90;;;;;;5111708;28;20050;-69
2021/09/16 11:23:40;;;;;;;12.98;5.65;;;17.90;99.90;;;;;;5087533;28;20107;-69
2021/09/16 11:26:22;;;;;;;9.48;5.13;;;18.30;99.90;;;;;;5106496;28;20084;-71
2021/09/16 14:26:36;;;;;;;4.07;1.88;;;18.80;99.90;;;;;;5082166;27;20515;-69
2021/09/16 14:29:02;;;;;;;4.25;2.00;;;18.80;99.90;;;;;;5085128;28;20075;-70
2021/09/16 14:31:28;;;;;;;5.45;2.03;;;18.90;99.90;;;;;;5072242;28;20025;-69
2021/09/16 14:33:54;;;;;;;5.88;2.13;;;19.10;99.90;;;;;;5073550;28;20036;-69
2021/09/16 14:36:19;;;;;;;4.22;2.08;;;19.30;99.90;;;;;;5073759;28;20382;-69
2021/09/16 14:38:45;;;;;;;5.45;2.15;;;19.40;99.90;;;;;;5089501;28;20032;-67
2021/09/16 14:41:12;;;;;;;6.43;2.00;;;19.40;99.90;;;;;;5093722;28;20024;-68
2021/09/16 14:43:39;;;;;;;7.38;1.90;;;19.50;99.90;;;;;;5082123;28;20078;-68
2021/09/16 14:46:05;;;;;;;5.28;2.10;;;19.50;99.90;;;;;;5091893;28;20434;-68
2021/09/16 14:48:30;;;;;;;4.15;1.85;;;19.50;99.90;;;;;;5090769;28;20067;-68
2021/09/16 14:50:56;;;;;;;5.28;1.88;;;19.60;99.90;;;;;;5091549;28;20089;-69
2021/09/16 14:53:22;;;;;;;5.13;1.90;;;19.60;99.90;;;;;;5092850;28;20020;-67
2021/09/16 14:55:50;;;;;;;4.72;2.20;;;19.60;99.90;;;;;;5092366;28;20074;-66
2021/09/16 14:58:17;;;;;;;3.50;2.10;;;19.50;99.90;;;;;;5092740;28;20043;-67
2021/09/16 15:00:42;;;;;;;5.00;2.20;;;19.50;99.90;;;;;;5092661;28;20016;-66
2021/09/16 15:03:08;;;;;;;4.68;2.25;;;19.60;99.90;;;;;;5092493;28;20077;-67
2021/09/16 15:05:34;;;;;;;5.43;1.85;;;19.80;99.90;;;;;;5092620;28;20119;-66
2021/09/16 15:07:59;;;;;;;4.80;1.95;;;19.90;99.90;;;;;;5093115;28;20111;-66
2021/09/16 15:10:25;;;;;;;6.65;1.90;;;20.00;99.90;;;;;;5093833;28;20537;-67
2021/09/16 15:12:51;;;;;;;3.80;1.67;;;20.00;99.90;;;;;;5093732;28;20032;-68
2021/09/16 15:15:16;;;;;;;3.22;1.45;;;19.70;99.90;;;;;;5092121;28;20020;-68
2021/09/16 15:17:42;;;;;;;4.57;1.77;;;19.40;99.90;;;;;;5058729;28;20020;-68
2021/09/16 15:20:08;;;;;;;4.57;1.70;;;19.20;99.90;;;;;;5058440;28;20106;-67
2021/09/16 15:22:34;;;;;;;4.57;1.60;;;19.10;99.90;;;;;;5092526;28;20480;-67
2021/09/16 15:24:59;;;;;;;2.28;1.50;;;19.00;99.90;;;;;;5093598;28;20024;-68
2021/09/16 15:27:25;;;;;;;5.45;1.80;;;18.90;99.90;;;;;;5093265;28;20052;-67
2021/09/16 15:29:53;;;;;;;3.15;1.70;;;18.80;99.90;;;;;;5093376;28;20036;-66
2021/09/16 15:32:19;;;;;;;5.75;1.88;;;18.70;99.90;;;;;;5059280;28;20066;-67
2021/09/16 15:34:45;;;;;;;4.68;1.65;;;18.60;99.90;;;;;;5093632;28;20047;-67
2021/09/16 15:37:10;;;;;;;1.83;1.40;;;18.60;99.90;;;;;;5093376;28;20409;-67
2021/09/16 15:39:39;;;;;;;4.55;1.45;;;18.60;99.90;;;;;;5091875;28;20028;-68
2021/09/16 15:42:09;;;;;;;3.83;1.52;;;18.60;99.90;;;;;;5093448;28;20040;-67
2021/09/16 15:44:35;;;;;;;3.33;1.60;;;18.70;99.90;;;;;;5092445;28;20028;-66
2021/09/16 15:47:03;;;;;;;5.35;1.85;;;18.70;99.90;;;;;;5092267;28;20047;-66
2021/09/16 15:49:29;;;;;;;5.47;1.65;;;18.70;99.90;;;;;;5093220;28;20080;-66
2021/09/16 15:51:54;;;;;;;9.27;1.77;;;18.70;99.90;;;;;;5074863;28;20031;-67
2021/09/16 15:54:20;;;;;;;6.35;1.70;;;18.70;99.90;;;;;;5091784;28;20024;-65
2021/09/16 15:56:45;;;;;;;5.05;2.03;;;18.70;99.90;;;;;;5092523;28;20047;-66
2021/09/16 15:59:11;;;;;;;2.53;1.52;;;18.70;99.90;;;;;;5094903;28;20024;-66